sensor_id;sensor_type;location;lat;lon;timestamp;P1;durP1;ratioP1;P2;durP2;ratioP2
23714;SDS011;12036;50.858;4.472;2022-07-29T00:01:45;3.80;;;1.52;;
23714;SDS011;12036;50.858;4.472;2022-07-29T00:04:11;3.67;;;1.27;;
23714;SDS011;12036;50.858;4.472;2022-07-29T00:06:37;4.63;;;1.35;;
23714;SDS011;12036;50.858;4.472;2022-07-29T00:09:03;3.90;;;1.30;;
23714;SDS011;12036;50.858;4.472;2022-07-29T00:11:29;6.80;;;1.40;;
23714;SDS011;12036;50.858;4.472;2022-07-29T00:13:54;3.88;;;1.50;;
23714;SDS011;12036;50.858;4.472;2022-07-29T00:16:20;4.82;;;1.30;;
23714;SDS011;12036;50.858;4.472;2022-07-29T00:18:46;6.43;;;1.23;;
23714;SDS011;12036;50.858;4.472;2022-07-29T00:21:11;4.43;;;1.15;;
23714;SDS011;12036;50.858;4.472;2022-07-29T00:23:37;11.90;;;1.40;;
23714;SDS011;12036;50.858;4.472;2022-07-29T00:26:02;4.88;;;1.45;;
23714;SDS011;12036;50.858;4.472;2022-07-29T00:28:28;5.70;;;1.65;;
23714;SDS011;12036;50.858;4.472;2022-07-29T00:30:54;5.35;;;1.42;;
23714;SDS011;12036;50.858;4.472;2022-07-29T00:33:19;7.07;;;1.10;;
23714;SDS011;12036;50.858;4.472;2022-07-29T00:35:46;2.53;;;1.45;;
23714;SDS011;12036;50.858;4.472;2022-07-29T00:38:16;8.13;;;1.23;;
23714;SDS011;12036;50.858;4.472;2022-07-29T00:40:43;3.20;;;1.17;;
23714;SDS011;12036;50.858;4.472;2022-07-29T00:43:11;6.18;;;1.20;;
23714;SDS011;12036;50.858;4.472;2022-07-29T00:45:38;3.85;;;1.40;;
23714;SDS011;12036;50.858;4.472;2022-07-29T00:48:04;2.50;;;1.20;;
23714;SDS011;12036;50.858;4.472;2022-07-29T00:50:31;5.07;;;1.80;;
23714;SDS011;12036;50.858;4.472;2022-07-29T00:52:57;1.92;;;1.40;;
23714;SDS011;12036;50.858;4.472;2022-07-29T00:55:24;2.95;;;1.40;;
23714;SDS011;12036;50.858;4.472;2022-07-29T00:57:50;3.05;;;1.50;;
23714;SDS011;12036;50.858;4.472;2022-07-29T01:00:21;3.97;;;1.33;;
23714;SDS011;12036;50.858;4.472;2022-07-29T01:02:48;2.63;;;1.25;;
23714;SDS011;12036;50.858;4.472;2022-07-29T01:05:14;4.53;;;1.33;;
23714;SDS011;12036;50.858;4.472;2022-07-29T01:07:43;5.60;;;1.60;;
23714;SDS011;12036;50.858;4.472;2022-07-29T01:10:11;2.40;;;1.20;;
23714;SDS011;12036;50.858;4.472;2022-07-29T01:12:38;8.63;;;1.67;;
23714;SDS011;12036;50.858;4.472;2022-07-29T01:15:05;2.65;;;1.40;;
23714;SDS011;12036;50.858;4.472;2022-07-29T01:31:19;4.63;;;1.40;;
23714;SDS011;12036;50.858;4.472;2022-07-29T01:33:50;2.47;;;1.35;;
23714;SDS011;12036;50.858;4.472;2022-07-29T01:36:28;5.13;;;1.88;;
23714;SDS011;12036;50.858;4.472;2022-07-29T01:38:59;3.30;;;1.40;;
23714;SDS011;12036;50.858;4.472;2022-07-29T01:41:36;5.35;;;1.40;;
23714;SDS011;12036;50.858;4.472;2022-07-29T01:44:22;4.55;;;1.25;;
23714;SDS011;12036;50.858;4.472;2022-07-29T01:46:58;4.68;;;1.77;;
23714;SDS011;12036;50.858;4.472;2022-07-29T01:49:31;3.15;;;1.45;;
23714;SDS011;12036;50.858;4.472;2022-07-29T01:52:02;4.80;;;1.35;;
23714;SDS011;12036;50.858;4.472;2022-07-29T01:57:03;6.40;;;1.50;;
23714;SDS011;12036;50.858;4.472;2022-07-29T01:59:31;2.95;;;1.48;;
23714;SDS011;12036;50.858;4.472;2022-07-29T02:01:59;1.88;;;1.30;;
23714;SDS011;12036;50.858;4.472;2022-07-29T02:04:26;3.85;;;1.40;;
23714;SDS011;12036;50.858;4.472;2022-07-29T02:06:54;6.20;;;1.30;;
23714;SDS011;12036;50.858;4.472;2022-07-29T02:09:25;4.05;;;1.42;;
23714;SDS011;12036;50.858;4.472;2022-07-29T02:11:52;3.28;;;1.23;;
23714;SDS011;12036;50.858;4.472;2022-07-29T02:14:20;6.65;;;1.63;;
23714;SDS011;12036;50.858;4.472;2022-07-29T02:16:48;3.08;;;1.58;;
23714;SDS011;12036;50.858;4.472;2022-07-29T02:19:18;4.60;;;1.35;;
23714;SDS011;12036;50.858;4.472;2022-07-29T02:21:47;2.55;;;1.38;;
23714;SDS011;12036;50.858;4.472;2022-07-29T02:24:15;2.25;;;1.40;;
23714;SDS011;12036;50.858;4.472;2022-07-29T02:26:42;4.97;;;1.60;;
23714;SDS011;12036;50.858;4.472;2022-07-29T02:29:09;2.70;;;1.40;;
23714;SDS011;12036;50.858;4.472;2022-07-29T02:31:37;2.88;;;1.60;;
23714;SDS011;12036;50.858;4.472;2022-07-29T02:34:05;2.03;;;1.30;;
23714;SDS011;12036;50.858;4.472;2022-07-29T02:36:33;6.38;;;1.40;;
23714;SDS011;12036;50.858;4.472;2022-07-29T02:39:00;1.85;;;1.30;;
23714;SDS011;12036;50.858;4.472;2022-07-29T02:44:01;3.70;;;1.80;;
23714;SDS011;12036;50.858;4.472;2022-07-29T02:46:34;2.40;;;1.05;;
23714;SDS011;12036;50.858;4.472;2022-07-29T02:57:32;2.35;;;1.48;;
23714;SDS011;12036;50.858;4.472;2022-07-29T03:00:06;2.33;;;1.58;;
23714;SDS011;12036;50.858;4.472;2022-07-29T03:02:34;2.95;;;1.48;;
23714;SDS011;12036;50.858;4.472;2022-07-29T03:05:03;3.72;;;1.58;;
23714;SDS011;12036;50.858;4.472;2022-07-29T03:07:31;4.57;;;1.65;;
23714;SDS011;12036;50.858;4.472;2022-07-29T03:09:58;4.53;;;1.67;;
23714;SDS011;12036;50.858;4.472;2022-07-29T03:12:24;4.35;;;1.48;;
23714;SDS011;12036;50.858;4.472;2022-07-29T03:14:52;3.40;;;1.30;;
23714;SDS011;12036;50.858;4.472;2022-07-29T03:17:17;4.72;;;1.58;;
23714;SDS011;12036;50.858;4.472;2022-07-29T03:19:44;4.50;;;1.60;;
23714;SDS011;12036;50.858;4.472;2022-07-29T03:22:10;4.88;;;1.70;;
23714;SDS011;12036;50.858;4.472;2022-07-29T03:24:37;3.67;;;1.58;;
23714;SDS011;12036;50.858;4.472;2022-07-29T03:27:03;2.00;;;1.40;;
23714;SDS011;12036;50.858;4.472;2022-07-29T03:29:29;7.53;;;1.55;;
23714;SDS011;12036;50.858;4.472;2022-07-29T03:31:56;5.07;;;1.40;;
23714;SDS011;12036;50.858;4.472;2022-07-29T03:34:21;5.13;;;1.70;;
23714;SDS011;12036;50.858;4.472;2022-07-29T03:36:48;2.88;;;1.38;;
23714;SDS011;12036;50.858;4.472;2022-07-29T03:39:18;4.72;;;1.77;;
23714;SDS011;12036;50.858;4.472;2022-07-29T03:41:47;3.58;;;1.35;;
23714;SDS011;12036;50.858;4.472;2022-07-29T03:44:15;3.10;;;1.65;;
23714;SDS011;12036;50.858;4.472;2022-07-29T03:46:42;2.80;;;1.80;;
23714;SDS011;12036;50.858;4.472;2022-07-29T03:49:09;3.75;;;2.05;;
23714;SDS011;12036;50.858;4.472;2022-07-29T03:51:37;3.35;;;1.45;;
23714;SDS011;12036;50.858;4.472;2022-07-29T03:54:04;3.45;;;1.50;;
23714;SDS011;12036;50.858;4.472;2022-07-29T03:56:30;5.30;;;1.63;;
23714;SDS011;12036;50.858;4.472;2022-07-29T03:58:59;2.83;;;1.70;;
23714;SDS011;12036;50.858;4.472;2022-07-29T04:01:27;3.72;;;1.75;;
23714;SDS011;12036;50.858;4.472;2022-07-29T04:03:54;4.30;;;1.75;;
23714;SDS011;12036;50.858;4.472;2022-07-29T04:06:21;4.28;;;1.85;;
23714;SDS011;12036;50.858;4.472;2022-07-29T04:08:46;2.10;;;1.58;;
23714;SDS011;12036;50.858;4.472;2022-07-29T04:11:12;2.25;;;1.60;;
23714;SDS011;12036;50.858;4.472;2022-07-29T04:13:38;7.50;;;1.60;;
23714;SDS011;12036;50.858;4.472;2022-07-29T04:16:04;5.43;;;1.63;;
23714;SDS011;12036;50.858;4.472;2022-07-29T04:18:29;4.43;;;1.70;;
23714;SDS011;12036;50.858;4.472;2022-07-29T04:20:55;4.40;;;1.77;;
23714;SDS011;12036;50.858;4.472;2022-07-29T04:23:20;2.83;;;1.70;;
23714;SDS011;12036;50.858;4.472;2022-07-29T04:25:46;7.88;;;1.95;;
23714;SDS011;12036;50.858;4.472;2022-07-29T04:28:12;4.75;;;1.70;;
23714;SDS011;12036;50.858;4.472;2022-07-29T04:30:37;5.50;;;1.85;;
23714;SDS011;12036;50.858;4.472;2022-07-29T04:33:04;5.55;;;1.85;;
23714;SDS011;12036;50.858;4.472;2022-07-29T04:35:33;3.90;;;1.60;;
23714;SDS011;12036;50.858;4.472;2022-07-29T04:38:00;2.95;;;1.75;;
23714;SDS011;12036;50.858;4.472;2022-07-29T04:40:26;6.95;;;2.25;;
23714;SDS011;12036;50.858;4.472;2022-07-29T04:42:52;4.78;;;1.85;;
23714;SDS011;12036;50.858;4.472;2022-07-29T04:45:18;5.93;;;2.30;;
23714;SDS011;12036;50.858;4.472;2022-07-29T04:47:43;5.10;;;1.95;;
23714;SDS011;12036;50.858;4.472;2022-07-29T04:50:09;4.82;;;1.85;;
23714;SDS011;12036;50.858;4.472;2022-07-29T04:52:35;7.68;;;2.20;;
23714;SDS011;12036;50.858;4.472;2022-07-29T04:55:01;3.55;;;2.15;;
23714;SDS011;12036;50.858;4.472;2022-07-29T04:57:27;5.30;;;2.40;;
23714;SDS011;12036;50.858;4.472;2022-07-29T04:59:52;9.30;;;3.00;;
23714;SDS011;12036;50.858;4.472;2022-07-29T05:02:18;3.20;;;2.60;;
23714;SDS011;12036;50.858;4.472;2022-07-29T05:04:44;4.30;;;2.30;;
23714;SDS011;12036;50.858;4.472;2022-07-29T05:07:09;3.72;;;2.30;;
23714;SDS011;12036;50.858;4.472;2022-07-29T05:09:35;4.57;;;2.58;;
23714;SDS011;12036;50.858;4.472;2022-07-29T05:12:01;7.32;;;2.58;;
23714;SDS011;12036;50.858;4.472;2022-07-29T05:14:26;3.78;;;2.75;;
23714;SDS011;12036;50.858;4.472;2022-07-29T05:16:52;5.35;;;2.80;;
23714;SDS011;12036;50.858;4.472;2022-07-29T05:19:21;6.65;;;2.50;;
23714;SDS011;12036;50.858;4.472;2022-07-29T05:21:47;5.80;;;2.72;;
23714;SDS011;12036;50.858;4.472;2022-07-29T05:24:13;9.93;;;2.85;;
23714;SDS011;12036;50.858;4.472;2022-07-29T05:26:38;5.85;;;2.88;;
23714;SDS011;12036;50.858;4.472;2022-07-29T05:29:04;11.30;;;3.03;;
23714;SDS011;12036;50.858;4.472;2022-07-29T05:31:30;4.07;;;2.33;;
23714;SDS011;12036;50.858;4.472;2022-07-29T05:33:56;3.17;;;2.33;;
23714;SDS011;12036;50.858;4.472;2022-07-29T05:36:21;5.57;;;2.80;;
23714;SDS011;12036;50.858;4.472;2022-07-29T05:38:47;3.30;;;2.25;;
23714;SDS011;12036;50.858;4.472;2022-07-29T05:41:12;6.55;;;2.58;;
23714;SDS011;12036;50.858;4.472;2022-07-29T05:43:38;2.80;;;2.38;;
23714;SDS011;12036;50.858;4.472;2022-07-29T05:46:04;3.60;;;2.42;;
23714;SDS011;12036;50.858;4.472;2022-07-29T05:48:29;6.68;;;2.20;;
23714;SDS011;12036;50.858;4.472;2022-07-29T05:50:55;5.68;;;2.67;;
23714;SDS011;12036;50.858;4.472;2022-07-29T05:53:21;9.80;;;2.92;;
23714;SDS011;12036;50.858;4.472;2022-07-29T05:55:47;3.97;;;2.72;;
23714;SDS011;12036;50.858;4.472;2022-07-29T05:58:14;6.35;;;2.47;;
23714;SDS011;12036;50.858;4.472;2022-07-29T06:00:40;3.30;;;2.60;;
23714;SDS011;12036;50.858;4.472;2022-07-29T06:03:05;7.72;;;2.50;;
23714;SDS011;12036;50.858;4.472;2022-07-29T06:05:31;4.47;;;2.88;;
23714;SDS011;12036;50.858;4.472;2022-07-29T06:07:57;4.10;;;2.63;;
23714;SDS011;12036;50.858;4.472;2022-07-29T06:10:22;5.72;;;2.35;;
23714;SDS011;12036;50.858;4.472;2022-07-29T06:12:49;7.07;;;2.70;;
23714;SDS011;12036;50.858;4.472;2022-07-29T06:15:15;3.38;;;2.60;;
23714;SDS011;12036;50.858;4.472;2022-07-29T06:17:41;6.55;;;2.53;;
23714;SDS011;12036;50.858;4.472;2022-07-29T06:20:06;5.13;;;2.63;;
23714;SDS011;12036;50.858;4.472;2022-07-29T06:22:32;7.35;;;2.72;;
23714;SDS011;12036;50.858;4.472;2022-07-29T06:24:58;4.00;;;2.50;;
23714;SDS011;12036;50.858;4.472;2022-07-29T06:27:23;4.22;;;2.90;;
23714;SDS011;12036;50.858;4.472;2022-07-29T06:29:49;6.47;;;3.22;;
23714;SDS011;12036;50.858;4.472;2022-07-29T06:32:15;3.15;;;2.58;;
23714;SDS011;12036;50.858;4.472;2022-07-29T06:34:40;4.63;;;2.58;;
23714;SDS011;12036;50.858;4.472;2022-07-29T06:37:06;4.55;;;2.55;;
23714;SDS011;12036;50.858;4.472;2022-07-29T06:39:34;6.30;;;2.38;;
23714;SDS011;12036;50.858;4.472;2022-07-29T06:42:06;6.78;;;2.80;;
23714;SDS011;12036;50.858;4.472;2022-07-29T06:44:32;3.95;;;2.60;;
23714;SDS011;12036;50.858;4.472;2022-07-29T06:47:00;4.45;;;2.80;;
23714;SDS011;12036;50.858;4.472;2022-07-29T06:49:26;6.32;;;2.78;;
23714;SDS011;12036;50.858;4.472;2022-07-29T06:51:52;6.03;;;2.70;;
23714;SDS011;12036;50.858;4.472;2022-07-29T06:54:19;4.05;;;2.95;;
23714;SDS011;12036;50.858;4.472;2022-07-29T06:56:45;3.20;;;2.83;;
23714;SDS011;12036;50.858;4.472;2022-07-29T06:59:11;9.27;;;3.05;;
23714;SDS011;12036;50.858;4.472;2022-07-29T07:01:38;4.65;;;3.22;;
23714;SDS011;12036;50.858;4.472;2022-07-29T07:04:05;3.85;;;2.45;;
23714;SDS011;12036;50.858;4.472;2022-07-29T07:06:31;4.80;;;3.15;;
23714;SDS011;12036;50.858;4.472;2022-07-29T07:08:57;4.30;;;3.17;;
23714;SDS011;12036;50.858;4.472;2022-07-29T07:11:22;4.05;;;3.15;;
23714;SDS011;12036;50.858;4.472;2022-07-29T07:13:48;6.30;;;3.63;;
23714;SDS011;12036;50.858;4.472;2022-07-29T07:16:14;9.35;;;3.17;;
23714;SDS011;12036;50.858;4.472;2022-07-29T07:18:39;5.88;;;3.20;;
23714;SDS011;12036;50.858;4.472;2022-07-29T07:21:05;8.27;;;3.38;;
23714;SDS011;12036;50.858;4.472;2022-07-29T07:23:31;4.45;;;3.50;;
23714;SDS011;12036;50.858;4.472;2022-07-29T07:25:56;9.10;;;3.70;;
23714;SDS011;12036;50.858;4.472;2022-07-29T07:28:22;5.00;;;3.25;;
23714;SDS011;12036;50.858;4.472;2022-07-29T07:30:48;5.30;;;3.65;;
23714;SDS011;12036;50.858;4.472;2022-07-29T07:33:14;6.82;;;3.35;;
23714;SDS011;12036;50.858;4.472;2022-07-29T07:35:40;5.47;;;3.22;;
23714;SDS011;12036;50.858;4.472;2022-07-29T07:38:07;7.05;;;3.20;;
23714;SDS011;12036;50.858;4.472;2022-07-29T07:40:33;4.88;;;3.13;;
23714;SDS011;12036;50.858;4.472;2022-07-29T07:42:59;5.80;;;3.25;;
23714;SDS011;12036;50.858;4.472;2022-07-29T07:45:24;5.32;;;3.35;;
23714;SDS011;12036;50.858;4.472;2022-07-29T07:47:50;7.22;;;3.45;;
23714;SDS011;12036;50.858;4.472;2022-07-29T07:50:15;9.40;;;3.25;;
23714;SDS011;12036;50.858;4.472;2022-07-29T07:52:49;4.28;;;2.85;;
23714;SDS011;12036;50.858;4.472;2022-07-29T07:55:18;8.07;;;3.20;;
23714;SDS011;12036;50.858;4.472;2022-07-29T07:57:45;5.63;;;2.63;;
23714;SDS011;12036;50.858;4.472;2022-07-29T08:00:12;4.85;;;2.42;;
23714;SDS011;12036;50.858;4.472;2022-07-29T08:02:39;8.07;;;3.00;;
23714;SDS011;12036;50.858;4.472;2022-07-29T08:05:06;5.65;;;3.10;;
23714;SDS011;12036;50.858;4.472;2022-07-29T08:07:32;5.85;;;3.00;;
23714;SDS011;12036;50.858;4.472;2022-07-29T08:09:58;7.68;;;3.22;;
23714;SDS011;12036;50.858;4.472;2022-07-29T08:12:24;7.88;;;2.85;;
23714;SDS011;12036;50.858;4.472;2022-07-29T08:14:50;3.67;;;3.25;;
23714;SDS011;12036;50.858;4.472;2022-07-29T08:17:15;6.18;;;3.20;;
23714;SDS011;12036;50.858;4.472;2022-07-29T08:19:41;5.05;;;3.10;;
23714;SDS011;12036;50.858;4.472;2022-07-29T08:22:07;7.00;;;2.92;;
23714;SDS011;12036;50.858;4.472;2022-07-29T08:24:32;6.43;;;3.67;;
23714;SDS011;12036;50.858;4.472;2022-07-29T08:27:16;7.85;;;2.90;;
23714;SDS011;12036;50.858;4.472;2022-07-29T08:29:42;5.53;;;2.83;;
23714;SDS011;12036;50.858;4.472;2022-07-29T08:32:08;6.75;;;2.70;;
23714;SDS011;12036;50.858;4.472;2022-07-29T08:34:33;5.75;;;2.47;;
23714;SDS011;12036;50.858;4.472;2022-07-29T08:36:59;5.25;;;2.65;;
23714;SDS011;12036;50.858;4.472;2022-07-29T08:39:25;11.60;;;3.13;;
23714;SDS011;12036;50.858;4.472;2022-07-29T08:41:51;3.85;;;2.88;;
23714;SDS011;12036;50.858;4.472;2022-07-29T08:44:18;5.50;;;2.63;;
23714;SDS011;12036;50.858;4.472;2022-07-29T08:46:44;6.63;;;2.95;;
23714;SDS011;12036;50.858;4.472;2022-07-29T08:49:10;6.97;;;2.30;;
23714;SDS011;12036;50.858;4.472;2022-07-29T08:51:36;11.98;;;2.50;;
23714;SDS011;12036;50.858;4.472;2022-07-29T08:54:04;8.43;;;2.72;;
23714;SDS011;12036;50.858;4.472;2022-07-29T08:56:31;4.82;;;2.10;;
23714;SDS011;12036;50.858;4.472;2022-07-29T08:58:58;7.50;;;1.98;;
23714;SDS011;12036;50.858;4.472;2022-07-29T09:01:27;7.68;;;2.63;;
23714;SDS011;12036;50.858;4.472;2022-07-29T09:03:55;6.43;;;2.50;;
23714;SDS011;12036;50.858;4.472;2022-07-29T09:06:21;5.40;;;2.00;;
23714;SDS011;12036;50.858;4.472;2022-07-29T09:08:50;2.40;;;1.75;;
23714;SDS011;12036;50.858;4.472;2022-07-29T09:11:16;6.60;;;1.58;;
23714;SDS011;12036;50.858;4.472;2022-07-29T09:13:42;6.22;;;1.70;;
23714;SDS011;12036;50.858;4.472;2022-07-29T09:16:08;5.68;;;1.60;;
23714;SDS011;12036;50.858;4.472;2022-07-29T09:18:38;2.08;;;1.60;;
23714;SDS011;12036;50.858;4.472;2022-07-29T09:24:02;4.55;;;1.80;;
23714;SDS011;12036;50.858;4.472;2022-07-29T09:26:36;10.00;;;1.30;;
23714;SDS011;12036;50.858;4.472;2022-07-29T09:29:16;3.83;;;1.50;;
23714;SDS011;12036;50.858;4.472;2022-07-29T09:31:45;4.03;;;1.58;;
23714;SDS011;12036;50.858;4.472;2022-07-29T09:34:13;3.72;;;1.48;;
23714;SDS011;12036;50.858;4.472;2022-07-29T09:36:43;2.88;;;1.30;;
23714;SDS011;12036;50.858;4.472;2022-07-29T09:39:11;3.30;;;1.40;;
23714;SDS011;12036;50.858;4.472;2022-07-29T09:41:49;3.40;;;1.33;;
23714;SDS011;12036;50.858;4.472;2022-07-29T09:44:19;7.53;;;1.42;;
23714;SDS011;12036;50.858;4.472;2022-07-29T09:47:02;9.25;;;1.35;;
23714;SDS011;12036;50.858;4.472;2022-07-29T09:49:32;4.07;;;1.65;;
23714;SDS011;12036;50.858;4.472;2022-07-29T09:52:06;1.92;;;1.13;;
23714;SDS011;12036;50.858;4.472;2022-07-29T09:54:33;4.72;;;1.23;;
23714;SDS011;12036;50.858;4.472;2022-07-29T09:57:07;4.97;;;1.10;;
23714;SDS011;12036;50.858;4.472;2022-07-29T09:59:37;4.10;;;1.40;;
23714;SDS011;12036;50.858;4.472;2022-07-29T10:02:12;2.50;;;0.98;;
23714;SDS011;12036;50.858;4.472;2022-07-29T10:04:42;1.48;;;0.90;;
23714;SDS011;12036;50.858;4.472;2022-07-29T10:07:08;3.97;;;1.40;;
23714;SDS011;12036;50.858;4.472;2022-07-29T10:09:34;4.13;;;1.20;;
23714;SDS011;12036;50.858;4.472;2022-07-29T10:12:07;1.55;;;1.00;;
23714;SDS011;12036;50.858;4.472;2022-07-29T10:14:39;3.88;;;1.10;;
23714;SDS011;12036;50.858;4.472;2022-07-29T10:17:06;6.13;;;1.50;;
23714;SDS011;12036;50.858;4.472;2022-07-29T10:19:34;4.47;;;1.52;;
23714;SDS011;12036;50.858;4.472;2022-07-29T10:22:02;3.00;;;1.50;;
23714;SDS011;12036;50.858;4.472;2022-07-29T10:24:30;2.65;;;1.20;;
23714;SDS011;12036;50.858;4.472;2022-07-29T10:26:57;6.35;;;1.55;;
23714;SDS011;12036;50.858;4.472;2022-07-29T10:29:24;2.55;;;1.40;;
23714;SDS011;12036;50.858;4.472;2022-07-29T10:37:35;3.40;;;1.50;;
23714;SDS011;12036;50.858;4.472;2022-07-29T10:43:29;2.78;;;1.35;;
23714;SDS011;12036;50.858;4.472;2022-07-29T10:46:01;3.78;;;1.50;;
23714;SDS011;12036;50.858;4.472;2022-07-29T10:48:28;5.00;;;1.60;;
23714;SDS011;12036;50.858;4.472;2022-07-29T10:51:00;9.40;;;1.50;;
23714;SDS011;12036;50.858;4.472;2022-07-29T10:56:28;2.20;;;1.30;;
23714;SDS011;12036;50.858;4.472;2022-07-29T11:04:10;5.25;;;1.35;;
23714;SDS011;12036;50.858;4.472;2022-07-29T11:09:27;3.22;;;1.00;;
23714;SDS011;12036;50.858;4.472;2022-07-29T11:11:55;1.63;;;1.10;;
23714;SDS011;12036;50.858;4.472;2022-07-29T11:14:54;2.60;;;1.45;;
23714;SDS011;12036;50.858;4.472;2022-07-29T11:17:19;3.55;;;1.30;;
23714;SDS011;12036;50.858;4.472;2022-07-29T11:19:45;2.72;;;1.08;;
23714;SDS011;12036;50.858;4.472;2022-07-29T11:22:11;4.97;;;1.55;;
23714;SDS011;12036;50.858;4.472;2022-07-29T11:25:12;2.28;;;1.15;;
23714;SDS011;12036;50.858;4.472;2022-07-29T11:27:39;2.33;;;1.40;;
23714;SDS011;12036;50.858;4.472;2022-07-29T11:30:05;4.20;;;1.25;;
23714;SDS011;12036;50.858;4.472;2022-07-29T11:32:36;2.78;;;1.27;;
23714;SDS011;12036;50.858;4.472;2022-07-29T11:37:40;3.63;;;1.20;;
23714;SDS011;12036;50.858;4.472;2022-07-29T11:47:42;6.55;;;1.45;;
23714;SDS011;12036;50.858;4.472;2022-07-29T11:50:13;3.78;;;1.30;;
23714;SDS011;12036;50.858;4.472;2022-07-29T11:52:44;4.00;;;1.20;;
23714;SDS011;12036;50.858;4.472;2022-07-29T11:55:18;3.70;;;1.42;;
23714;SDS011;12036;50.858;4.472;2022-07-29T12:00:41;3.72;;;1.70;;
23714;SDS011;12036;50.858;4.472;2022-07-29T12:03:08;6.90;;;1.95;;
23714;SDS011;12036;50.858;4.472;2022-07-29T12:05:42;2.55;;;1.20;;
23714;SDS011;12036;50.858;4.472;2022-07-29T12:08:13;3.95;;;2.08;;
23714;SDS011;12036;50.858;4.472;2022-07-29T12:10:43;7.22;;;1.90;;
23714;SDS011;12036;50.858;4.472;2022-07-29T12:13:11;3.67;;;1.67;;
23714;SDS011;12036;50.858;4.472;2022-07-29T12:15:38;4.80;;;1.63;;
23714;SDS011;12036;50.858;4.472;2022-07-29T12:18:37;4.65;;;1.60;;
23714;SDS011;12036;50.858;4.472;2022-07-29T12:20:57;3.50;;;1.80;;
23714;SDS011;12036;50.858;4.472;2022-07-29T12:23:24;4.15;;;1.70;;
23714;SDS011;12036;50.858;4.472;2022-07-29T12:25:50;5.82;;;2.15;;
23714;SDS011;12036;50.858;4.472;2022-07-29T12:28:16;5.95;;;3.60;;
23714;SDS011;12036;50.858;4.472;2022-07-29T12:30:47;4.25;;;2.00;;
23714;SDS011;12036;50.858;4.472;2022-07-29T12:36:01;9.13;;;2.17;;
23714;SDS011;12036;50.858;4.472;2022-07-29T12:38:28;3.72;;;2.50;;
23714;SDS011;12036;50.858;4.472;2022-07-29T12:40:54;8.43;;;1.98;;
23714;SDS011;12036;50.858;4.472;2022-07-29T12:45:48;9.57;;;2.90;;
23714;SDS011;12036;50.858;4.472;2022-07-29T12:48:15;6.20;;;2.60;;
23714;SDS011;12036;50.858;4.472;2022-07-29T12:50:52;6.65;;;2.38;;
23714;SDS011;12036;50.858;4.472;2022-07-29T12:53:19;6.70;;;2.60;;
23714;SDS011;12036;50.858;4.472;2022-07-29T12:55:46;7.38;;;2.50;;
23714;SDS011;12036;50.858;4.472;2022-07-29T12:58:29;7.45;;;2.28;;
23714;SDS011;12036;50.858;4.472;2022-07-29T13:01:07;3.88;;;2.17;;
23714;SDS011;12036;50.858;4.472;2022-07-29T13:09:13;4.35;;;2.13;;
23714;SDS011;12036;50.858;4.472;2022-07-29T13:11:41;3.25;;;2.25;;
23714;SDS011;12036;50.858;4.472;2022-07-29T13:14:11;6.35;;;2.67;;
23714;SDS011;12036;50.858;4.472;2022-07-29T13:16:59;6.05;;;2.50;;
23714;SDS011;12036;50.858;4.472;2022-07-29T13:19:37;4.70;;;2.22;;
23714;SDS011;12036;50.858;4.472;2022-07-29T13:22:07;6.72;;;2.38;;
23714;SDS011;12036;50.858;4.472;2022-07-29T13:24:58;4.63;;;2.40;;
23714;SDS011;12036;50.858;4.472;2022-07-29T13:27:25;5.13;;;2.33;;
23714;SDS011;12036;50.858;4.472;2022-07-29T13:29:52;2.40;;;2.08;;
23714;SDS011;12036;50.858;4.472;2022-07-29T13:32:21;6.30;;;2.10;;
23714;SDS011;12036;50.858;4.472;2022-07-29T13:34:48;8.10;;;2.35;;
23714;SDS011;12036;50.858;4.472;2022-07-29T13:37:14;2.72;;;1.52;;
23714;SDS011;12036;50.858;4.472;2022-07-29T13:39:39;3.85;;;1.80;;
23714;SDS011;12036;50.858;4.472;2022-07-29T13:42:06;6.28;;;1.80;;
23714;SDS011;12036;50.858;4.472;2022-07-29T13:44:32;2.97;;;1.50;;
23714;SDS011;12036;50.858;4.472;2022-07-29T13:46:58;6.05;;;2.05;;
23714;SDS011;12036;50.858;4.472;2022-07-29T13:49:26;4.18;;;1.67;;
23714;SDS011;12036;50.858;4.472;2022-07-29T13:51:52;6.40;;;2.30;;
23714;SDS011;12036;50.858;4.472;2022-07-29T13:54:18;6.47;;;1.90;;
23714;SDS011;12036;50.858;4.472;2022-07-29T13:56:44;5.78;;;1.88;;
23714;SDS011;12036;50.858;4.472;2022-07-29T13:59:10;9.40;;;2.15;;
23714;SDS011;12036;50.858;4.472;2022-07-29T14:01:35;8.20;;;2.28;;
23714;SDS011;12036;50.858;4.472;2022-07-29T14:04:02;6.63;;;1.92;;
23714;SDS011;12036;50.858;4.472;2022-07-29T14:06:28;4.28;;;1.67;;
23714;SDS011;12036;50.858;4.472;2022-07-29T14:08:53;4.85;;;1.60;;
23714;SDS011;12036;50.858;4.472;2022-07-29T14:11:19;5.50;;;1.70;;
23714;SDS011;12036;50.858;4.472;2022-07-29T14:13:45;8.30;;;1.60;;
23714;SDS011;12036;50.858;4.472;2022-07-29T14:16:10;4.70;;;1.38;;
23714;SDS011;12036;50.858;4.472;2022-07-29T14:18:36;3.35;;;1.70;;
23714;SDS011;12036;50.858;4.472;2022-07-29T14:21:02;3.85;;;1.60;;
23714;SDS011;12036;50.858;4.472;2022-07-29T14:23:28;3.60;;;1.50;;
23714;SDS011;12036;50.858;4.472;2022-07-29T14:25:53;3.47;;;1.63;;
23714;SDS011;12036;50.858;4.472;2022-07-29T14:28:19;4.28;;;1.27;;
23714;SDS011;12036;50.858;4.472;2022-07-29T14:30:45;4.63;;;1.30;;
23714;SDS011;12036;50.858;4.472;2022-07-29T14:33:11;3.63;;;1.40;;
23714;SDS011;12036;50.858;4.472;2022-07-29T14:35:37;2.83;;;1.30;;
23714;SDS011;12036;50.858;4.472;2022-07-29T14:38:02;1.92;;;1.23;;
23714;SDS011;12036;50.858;4.472;2022-07-29T14:40:28;5.93;;;1.38;;
23714;SDS011;12036;50.858;4.472;2022-07-29T14:42:54;4.88;;;1.27;;
23714;SDS011;12036;50.858;4.472;2022-07-29T14:45:20;2.90;;;1.17;;
23714;SDS011;12036;50.858;4.472;2022-07-29T14:47:45;2.03;;;1.30;;
23714;SDS011;12036;50.858;4.472;2022-07-29T14:50:11;1.50;;;1.10;;
23714;SDS011;12036;50.858;4.472;2022-07-29T14:52:37;3.28;;;1.40;;
23714;SDS011;12036;50.858;4.472;2022-07-29T14:55:03;3.17;;;1.17;;
23714;SDS011;12036;50.858;4.472;2022-07-29T14:57:29;3.25;;;1.23;;
23714;SDS011;12036;50.858;4.472;2022-07-29T14:59:55;2.42;;;1.05;;
23714;SDS011;12036;50.858;4.472;2022-07-29T15:02:20;4.60;;;1.40;;
23714;SDS011;12036;50.858;4.472;2022-07-29T15:04:46;4.15;;;1.35;;
23714;SDS011;12036;50.858;4.472;2022-07-29T15:07:13;1.67;;;1.05;;
23714;SDS011;12036;50.858;4.472;2022-07-29T15:09:39;6.75;;;1.38;;
23714;SDS011;12036;50.858;4.472;2022-07-29T15:12:05;2.80;;;1.10;;
23714;SDS011;12036;50.858;4.472;2022-07-29T15:14:31;2.83;;;1.20;;
23714;SDS011;12036;50.858;4.472;2022-07-29T15:16:57;3.75;;;1.10;;
23714;SDS011;12036;50.858;4.472;2022-07-29T15:19:23;1.65;;;1.25;;
23714;SDS011;12036;50.858;4.472;2022-07-29T15:21:49;2.88;;;1.10;;
23714;SDS011;12036;50.858;4.472;2022-07-29T15:24:18;3.08;;;0.98;;
23714;SDS011;12036;50.858;4.472;2022-07-29T15:26:45;3.08;;;1.20;;
23714;SDS011;12036;50.858;4.472;2022-07-29T15:29:11;3.58;;;1.20;;
23714;SDS011;12036;50.858;4.472;2022-07-29T15:31:38;3.45;;;1.50;;
23714;SDS011;12036;50.858;4.472;2022-07-29T15:34:03;2.80;;;1.17;;
23714;SDS011;12036;50.858;4.472;2022-07-29T15:36:30;3.85;;;1.38;;
23714;SDS011;12036;50.858;4.472;2022-07-29T15:38:56;6.43;;;1.20;;
23714;SDS011;12036;50.858;4.472;2022-07-29T15:41:22;1.80;;;1.08;;
23714;SDS011;12036;50.858;4.472;2022-07-29T15:43:48;2.65;;;1.30;;
23714;SDS011;12036;50.858;4.472;2022-07-29T15:46:14;1.92;;;1.40;;
23714;SDS011;12036;50.858;4.472;2022-07-29T15:49:00;4.43;;;1.80;;
23714;SDS011;12036;50.858;4.472;2022-07-29T15:51:27;5.22;;;1.70;;
23714;SDS011;12036;50.858;4.472;2022-07-29T15:53:53;2.95;;;1.70;;
23714;SDS011;12036;50.858;4.472;2022-07-29T15:56:18;4.50;;;1.95;;
23714;SDS011;12036;50.858;4.472;2022-07-29T15:58:45;4.30;;;1.65;;
23714;SDS011;12036;50.858;4.472;2022-07-29T16:01:11;2.30;;;1.60;;
23714;SDS011;12036;50.858;4.472;2022-07-29T16:03:37;4.70;;;1.80;;
23714;SDS011;12036;50.858;4.472;2022-07-29T16:06:03;2.95;;;1.60;;